Time;durP1;ratioP1;P1;durP2;ratioP2;P2;SDS_P1;SDS_P2;PMS_P1;PMS_P2;Temp;Humidity;BMP_temperature;BMP_pressure;BME280_temperature;BME280_humidity;BME280_pressure;Samples;Min_cycle;Max_cycle;Signal;HPM_P1;HPM_P2
2022/12/21 00:01:14;;;;;;;164.20;33.88;;;8.30;99.90;;;;;;5041944;28;20074;-83
2022/12/21 00:03:41;;;;;;;155.90;32.72;;;8.20;99.90;;;;;;5051206;28;20453;-84
2022/12/21 00:06:07;;;;;;;185.57;36.72;;;8.20;99.90;;;;;;5047224;28;20053;-84
2022/12/21 00:08:37;;;;;;;202.95;35.03;;;8.10;99.90;;;;;;5049771;28;20052;-83
2022/12/21 00:11:04;;;;;;;219.40;37.42;;;8.20;99.90;;;;;;5043677;28;20110;-84
2022/12/21 00:13:31;;;;;;;201.48;36.13;;;8.10;99.90;;;;;;5046966;28;20052;-83
2022/12/21 00:16:03;;;;;;;209.45;38.85;;;8.10;99.90;;;;;;5042382;28;20422;-83
2022/12/21 00:18:33;;;;;;;226.63;36.83;;;8.10;99.90;;;;;;5048630;28;20140;-83
2022/12/21 00:21:00;;;;;;;264.00;41.38;;;8.00;99.90;;;;;;5034335;28;20072;-84
2022/12/21 00:23:27;;;;;;;225.40;38.22;;;8.10;99.90;;;;;;5031440;28;20052;-84
2022/12/21 00:25:53;;;;;;;201.52;36.95;;;8.10;99.90;;;;;;5034793;28;20083;-82
2022/12/21 00:28:18;;;;;;;158.88;35.40;;;8.00;99.90;;;;;;5044705;28;20076;-84
2022/12/21 00:30:44;;;;;;;210.23;37.35;;;8.00;99.90;;;;;;5030382;28;20049;-83
2022/12/21 00:33:10;;;;;;;164.32;34.38;;;8.00;99.90;;;;;;5032553;28;20067;-81
2022/12/21 00:35:36;;;;;;;174.63;34.22;;;7.90;99.90;;;;;;5045523;28;20040;-83
2022/12/21 00:38:02;;;;;;;166.10;33.95;;;7.90;99.90;;;;;;5023262;28;20066;-82
2022/12/21 00:40:28;;;;;;;198.30;35.63;;;7.80;99.90;;;;;;5033334;28;20097;-82
2022/12/21 00:42:53;;;;;;;228.60;38.38;;;7.80;99.90;;;;;;5015088;28;20049;-82
2022/12/21 00:45:19;;;;;;;213.02;35.75;;;7.90;99.90;;;;;;5033068;28;20041;-86
2022/12/21 00:47:45;;;;;;;215.82;36.97;;;7.80;99.90;;;;;;5048847;28;20051;-83
2022/12/21 00:50:11;;;;;;;217.18;38.17;;;7.80;99.90;;;;;;5032726;28;20086;-83
2022/12/21 00:52:36;;;;;;;206.73;37.92;;;7.90;99.90;;;;;;5025207;28;20483;-82
2022/12/21 00:55:02;;;;;;;221.85;39.25;;;7.90;99.90;;;;;;5030356;28;20033;-82
2022/12/21 00:57:28;;;;;;;233.57;39.22;;;7.90;99.90;;;;;;5048835;28;20049;-83
2022/12/21 00:59:54;;;;;;;217.27;37.97;;;7.90;99.90;;;;;;5059811;28;20480;-82
2022/12/21 01:02:20;;;;;;;223.80;40.00;;;7.90;99.90;;;;;;5016249;28;20049;-83
2022/12/21 01:04:45;;;;;;;184.32;34.92;;;7.90;99.90;;;;;;5049037;28;20057;-82
2022/12/21 01:07:11;;;;;;;208.23;35.40;;;7.90;99.90;;;;;;5031988;28;20136;-83
2022/12/21 01:09:37;;;;;;;169.63;30.88;;;7.90;99.90;;;;;;5049119;28;20055;-82
2022/12/21 01:12:02;;;;;;;183.80;32.72;;;7.90;99.90;;;;;;5048241;28;20087;-83
2022/12/21 01:14:28;;;;;;;140.60;27.48;;;7.90;99.90;;;;;;5030210;28;20045;-83
2022/12/21 01:16:54;;;;;;;166.55;28.83;;;7.90;99.90;;;;;;5029491;28;20509;-83
2022/12/21 01:19:20;;;;;;;150.45;29.90;;;7.80;99.90;;;;;;5016242;28;20081;-83
2022/12/21 01:21:46;;;;;;;186.23;32.15;;;7.80;99.90;;;;;;5039790;28;20078;-84
2022/12/21 01:24:12;;;;;;;184.80;32.83;;;7.80;99.90;;;;;;5038760;28;20073;-83
2022/12/21 01:26:38;;;;;;;235.10;34.47;;;7.80;99.90;;;;;;5015804;28;20467;-82
2022/12/21 01:29:04;;;;;;;250.98;36.03;;;7.80;99.90;;;;;;5035608;28;20257;-84
2022/12/21 01:31:30;;;;;;;207.25;33.78;;;7.80;99.90;;;;;;5030600;28;20128;-87
2022/12/21 01:33:59;;;;;;;253.02;37.30;;;7.80;99.90;;;;;;5045847;28;20159;-83
2022/12/21 01:36:24;;;;;;;165.90;31.33;;;7.70;99.90;;;;;;5029696;28;20057;-83
2022/12/21 01:38:50;;;;;;;192.80;33.33;;;7.70;99.90;;;;;;5028610;28;20179;-84
2022/12/21 01:41:20;;;;;;;200.60;32.83;;;7.70;99.90;;;;;;5031262;28;20049;-83
2022/12/21 01:43:47;;;;;;;242.88;33.55;;;7.70;99.90;;;;;;5040096;28;20098;-84
2022/12/21 01:46:36;;;;;;;252.52;31.80;;;7.70;99.90;;;;;;5031721;28;20033;-83
2022/12/21 01:49:15;;;;;;;231.50;31.70;;;7.60;99.90;;;;;;5031368;28;20103;-83
2022/12/21 01:51:44;;;;;;;264.65;33.60;;;7.60;99.90;;;;;;5043015;28;20065;-83
2022/12/21 01:54:30;;;;;;;280.80;34.97;;;7.60;99.90;;;;;;5030544;28;20041;-84
2022/12/21 01:56:58;;;;;;;253.45;31.40;;;7.60;99.90;;;;;;5040024;28;20045;-83
2022/12/21 01:59:28;;;;;;;226.18;31.63;;;7.60;99.90;;;;;;5025341;28;20132;-83
2022/12/21 02:01:54;;;;;;;208.23;29.42;;;7.50;99.90;;;;;;5037235;28;20037;-83
2022/12/21 02:04:21;;;;;;;221.43;29.63;;;7.50;99.90;;;;;;5041725;28;20049;-83
2022/12/21 02:06:58;;;;;;;260.70;31.17;;;7.50;99.90;;;;;;5044983;28;20053;-85
2022/12/21 02:09:35;;;;;;;256.50;26.77;;;7.50;99.90;;;;;;5046243;28;20048;-83
2022/12/21 02:12:04;;;;;;;278.35;28.40;;;7.50;99.90;;;;;;5035538;28;20127;-88
2022/12/21 02:14:35;;;;;;;279.73;27.60;;;7.40;99.90;;;;;;5034323;28;20053;-82
2022/12/21 02:17:09;;;;;;;236.60;27.20;;;7.40;99.90;;;;;;5052743;28;20057;-83
2022/12/21 02:19:54;;;;;;;285.83;28.80;;;7.40;99.90;;;;;;5033892;28;20360;-86
2022/12/21 02:22:34;;;;;;;282.70;28.75;;;7.40;99.90;;;;;;5050085;28;20041;-85
2022/12/21 02:25:35;;;;;;;371.58;33.97;;;7.30;99.90;;;;;;5034911;28;20060;-84
2022/12/21 02:28:33;;;;;;;302.67;30.73;;;7.40;99.90;;;;;;5048012;28;20076;-84
2022/12/21 02:31:15;;;;;;;270.95;30.13;;;7.40;99.90;;;;;;5051023;28;20405;-83
2022/12/21 02:33:58;;;;;;;321.92;31.55;;;7.30;99.90;;;;;;5034744;28;20088;-83
2022/12/21 02:37:04;;;;;;;352.60;32.10;;;7.40;99.90;;;;;;5046355;28;20051;-82
2022/12/21 02:39:33;;;;;;;270.67;26.95;;;7.30;99.90;;;;;;5030750;28;20135;-83
2022/12/21 02:45:34;;;;;;;190.18;21.15;;;7.30;99.90;;;;;;5050580;28;20076;-83
2022/12/21 02:48:40;;;;;;;228.85;23.63;;;7.20;99.90;;;;;;5047168;28;20566;-83
2022/12/21 02:51:12;;;;;;;260.70;25.48;;;7.20;99.90;;;;;;5019748;28;20087;-84
2022/12/21 02:53:39;;;;;;;302.77;27.15;;;7.10;99.90;;;;;;5047687;28;20041;-83
2022/12/21 02:56:05;;;;;;;293.85;26.48;;;7.20;99.90;;;;;;5051862;28;20406;-83
2022/12/21 02:58:30;;;;;;;241.85;24.70;;;7.20;99.90;;;;;;5051760;28;20052;-83
2022/12/21 03:01:19;;;;;;;246.30;23.33;;;7.20;99.90;;;;;;5047571;28;20049;-82
2022/12/21 03:04:16;;;;;;;277.10;24.58;;;7.10;99.90;;;;;;5033513;28;20053;-86
2022/12/21 03:07:00;;;;;;;244.75;23.85;;;7.10;99.90;;;;;;5046811;28;20049;-82
2022/12/21 03:09:35;;;;;;;289.33;24.27;;;7.00;99.90;;;;;;5030285;28;20061;-82
2022/12/21 03:12:08;;;;;;;313.60;26.90;;;7.00;99.90;;;;;;5040998;28;20044;-82
2022/12/21 03:14:45;;;;;;;298.27;27.25;;;7.00;99.90;;;;;;5045719;28;20061;-82
2022/12/21 03:17:21;;;;;;;363.23;30.23;;;6.90;99.90;;;;;;5045639;28;20591;-83
2022/12/21 03:19:54;;;;;;;336.33;29.27;;;6.90;99.90;;;;;;5030568;28;20048;-87
2022/12/21 03:22:42;;;;;;;342.27;29.00;;;6.90;99.90;;;;;;5028660;28;20128;-82
2022/12/21 03:25:28;;;;;;;305.95;27.83;;;6.90;99.90;;;;;;5041469;28;20106;-83
2022/12/21 03:28:00;;;;;;;314.60;27.55;;;6.90;99.90;;;;;;5042996;28;20060;-83
2022/12/21 03:30:28;;;;;;;297.08;27.13;;;6.90;99.90;;;;;;5050296;28;20033;-87
2022/12/21 03:33:02;;;;;;;328.98;28.60;;;6.80;99.90;;;;;;5051853;28;20056;-82
2022/12/21 03:35:37;;;;;;;332.63;28.88;;;6.90;99.90;;;;;;5020490;28;20529;-82
2022/12/21 03:38:08;;;;;;;376.17;29.38;;;6.90;99.90;;;;;;5033258;28;20045;-83
2022/12/21 03:40:38;;;;;;;365.05;28.13;;;6.90;99.90;;;;;;5049559;28;20048;-86
2022/12/21 03:43:12;;;;;;;399.27;29.90;;;6.90;99.90;;;;;;5048340;28;20103;-83
2022/12/21 03:45:47;;;;;;;427.92;30.83;;;6.90;99.90;;;;;;5049609;28;20131;-82
2022/12/21 03:48:32;;;;;;;379.87;29.57;;;6.90;99.90;;;;;;5041150;28;20052;-82
2022/12/21 03:51:05;;;;;;;289.27;25.58;;;6.90;99.90;;;;;;5048353;28;20064;-82
2022/12/21 03:53:48;;;;;;;339.00;25.83;;;6.90;99.90;;;;;;5046610;28;20517;-82
2022/12/21 03:56:24;;;;;;;313.23;25.83;;;6.90;99.90;;;;;;5049064;28;20033;-83
2022/12/21 03:58:50;;;;;;;;;;;6.90;99.90;;;;;;5032866;28;20103;-84
2022/12/21 04:01:53;;;;;;;217.17;17.17;;;6.90;99.90;;;;;;5063873;28;19924;-84
2022/12/21 04:04:36;;;;;;;371.95;27.23;;;6.80;99.90;;;;;;5058646;28;20110;-82
2022/12/21 04:07:06;;;;;;;289.85;24.83;;;6.90;99.90;;;;;;5042371;28;20053;-82
2022/12/21 04:09:32;;;;;;;336.85;24.63;;;6.80;99.90;;;;;;5047584;28;20045;-82
2022/12/21 04:14:42;;;;;;;375.38;29.55;;;6.90;99.90;;;;;;5031333;28;20136;-82
2022/12/21 04:17:08;;;;;;;337.52;27.05;;;6.90;99.90;;;;;;5048567;28;20162;-82
2022/12/21 04:30:32;;;;;;;378.65;28.00;;;6.90;99.90;;;;;;5045269;28;20490;-82
2022/12/21 04:32:57;;;;;;;369.85;28.98;;;7.00;99.90;;;;;;5031453;28;20052;-87
2022/12/21 04:35:23;;;;;;;419.42;30.73;;;7.00;99.90;;;;;;5043129;28;20067;-82
2022/12/21 04:37:49;;;;;;;378.50;27.95;;;7.00;99.90;;;;;;5030601;28;20474;-82
2022/12/21 04:40:15;;;;;;;417.42;31.60;;;7.00;99.90;;;;;;5047255;28;20128;-82
2022/12/21 04:42:41;;;;;;;275.50;26.50;;;7.00;99.90;;;;;;5028664;28;20572;-82
2022/12/21 04:45:07;;;;;;;329.70;27.50;;;6.90;99.90;;;;;;5032103;28;20041;-82
2022/12/21 04:47:32;;;;;;;351.17;30.35;;;6.90;99.90;;;;;;5045373;28;20363;-82
2022/12/21 04:49:58;;;;;;;394.73;30.25;;;6.90;99.90;;;;;;5031132;28;20053;-82
2022/12/21 04:52:24;;;;;;;334.52;30.52;;;6.90;99.90;;;;;;5015126;28;20051;-83
2022/12/21 04:54:50;;;;;;;382.05;31.42;;;6.90;99.90;;;;;;5025705;28;20394;-82
2022/12/21 04:57:16;;;;;;;429.90;32.10;;;6.90;99.90;;;;;;5015314;28;20040;-83
2022/12/21 04:59:44;;;;;;;352.95;30.05;;;6.90;99.90;;;;;;5029209;28;20063;-82
2022/12/21 05:02:11;;;;;;;351.63;30.35;;;6.90;99.90;;;;;;5022317;28;20053;-83
2022/12/21 05:04:37;;;;;;;385.98;31.05;;;6.80;99.90;;;;;;5046012;28;20098;-82
2022/12/21 05:07:03;;;;;;;389.75;31.83;;;6.80;99.90;;;;;;5021399;28;20487;-86
2022/12/21 05:09:29;;;;;;;310.30;28.60;;;6.80;99.90;;;;;;5028998;28;20133;-83
2022/12/21 05:11:55;;;;;;;312.67;26.98;;;6.80;99.90;;;;;;5030565;28;20103;-83
2022/12/21 05:14:22;;;;;;;354.02;28.92;;;6.80;99.90;;;;;;5037036;28;20110;-81
2022/12/21 05:16:48;;;;;;;391.08;29.98;;;6.80;99.90;;;;;;5045100;28;20056;-83
2022/12/21 05:19:14;;;;;;;352.13;29.60;;;6.80;99.90;;;;;;5032586;28;20398;-83
2022/12/21 05:21:40;;;;;;;326.23;28.35;;;6.80;99.90;;;;;;5029069;28;20052;-83
2022/12/21 05:24:06;;;;;;;330.00;29.92;;;6.80;99.90;;;;;;5035135;28;20053;-85
2022/12/21 05:26:34;;;;;;;303.05;28.50;;;6.80;99.90;;;;;;5009172;28;20056;-83
2022/12/21 05:29:00;;;;;;;319.00;29.75;;;6.80;99.90;;;;;;5029708;28;20041;-82
2022/12/21 05:31:26;;;;;;;310.15;29.52;;;6.80;99.90;;;;;;5021449;28;20057;-83
2022/12/21 05:33:52;;;;;;;348.05;32.78;;;6.80;99.90;;;;;;5033025;28;20541;-82
2022/12/21 05:36:18;;;;;;;350.92;32.28;;;6.80;99.90;;;;;;5026033;28;20469;-82
2022/12/21 05:38:47;;;;;;;324.20;31.45;;;6.80;99.90;;;;;;5042041;28;20041;-82
2022/12/21 05:41:14;;;;;;;331.10;33.45;;;6.70;99.90;;;;;;5038909;28;20033;-82
2022/12/21 05:43:40;;;;;;;394.35;38.47;;;6.70;99.90;;;;;;5033307;28;20115;-82
2022/12/21 05:46:08;;;;;;;395.60;36.65;;;6.80;99.90;;;;;;5015856;28;20045;-82
2022/12/21 05:48:34;;;;;;;282.73;34.08;;;6.80;99.90;;;;;;5040868;28;20049;-83
2022/12/21 05:51:06;;;;;;;305.65;36.45;;;6.80;99.90;;;;;;5048221;28;20057;-82
2022/12/21 05:53:32;;;;;;;345.77;36.92;;;6.70;99.90;;;;;;5043565;28;20474;-81
2022/12/21 05:55:58;;;;;;;338.67;37.63;;;6.70;99.90;;;;;;5041045;28;20074;-81
2022/12/21 05:58:23;;;;;;;325.50;37.35;;;6.70;99.90;;;;;;5030739;28;20554;-81
2022/12/21 06:00:49;;;;;;;348.15;39.33;;;6.70;99.90;;;;;;5009909;28;20081;-82
2022/12/21 06:03:15;;;;;;;387.27;42.45;;;6.70;99.90;;;;;;5044962;28;20057;-85
2022/12/21 06:05:41;;;;;;;420.20;44.33;;;6.70;99.90;;;;;;5045491;28;20467;-82
2022/12/21 06:08:06;;;;;;;467.65;46.97;;;6.70;99.90;;;;;;5043139;28;20049;-82
2022/12/21 06:10:35;;;;;;;420.02;44.30;;;6.70;99.90;;;;;;5025974;28;20084;-83
2022/12/21 06:13:01;;;;;;;480.88;50.58;;;6.70;99.90;;;;;;5032472;28;20037;-83
2022/12/21 06:15:27;;;;;;;474.77;48.13;;;6.70;99.90;;;;;;5048805;28;20090;-84
2022/12/21 06:17:52;;;;;;;467.48;49.50;;;6.80;99.90;;;;;;5030594;28;20053;-83
2022/12/21 06:20:18;;;;;;;522.03;52.47;;;6.70;99.90;;;;;;5048782;28;20048;-85
2022/12/21 06:22:44;;;;;;;583.97;56.75;;;6.70;99.90;;;;;;5046800;28;20064;-83
2022/12/21 06:25:10;;;;;;;393.30;47.08;;;6.80;99.90;;;;;;5010434;28;20060;-84
2022/12/21 06:27:38;;;;;;;462.45;52.05;;;6.80;99.90;;;;;;5013469;28;20055;-83
2022/12/21 06:30:04;;;;;;;410.48;48.47;;;6.80;99.90;;;;;;5016337;28;20128;-83
2022/12/21 06:32:32;;;;;;;389.30;47.78;;;6.80;99.90;;;;;;5046141;28;20077;-84
2022/12/21 06:34:58;;;;;;;415.20;48.88;;;6.80;99.90;;;;;;5044734;28;20037;-80
2022/12/21 06:37:24;;;;;;;415.30;48.45;;;6.80;99.90;;;;;;5026447;28;20505;-84
2022/12/21 06:39:49;;;;;;;424.15;49.22;;;6.80;99.90;;;;;;5042273;28;20126;-85
2022/12/21 06:42:15;;;;;;;413.23;47.35;;;6.80;99.90;;;;;;5027485;28;20119;-84
2022/12/21 06:44:41;;;;;;;454.55;51.40;;;6.80;99.90;;;;;;5010254;28;20041;-83
2022/12/21 06:47:07;;;;;;;452.00;50.45;;;6.80;99.90;;;;;;5014322;28;20041;-84
2022/12/21 06:49:33;;;;;;;474.27;51.90;;;6.90;99.90;;;;;;5012398;28;20057;-85
2022/12/21 06:51:58;;;;;;;509.58;53.83;;;6.90;99.90;;;;;;5030862;28;20053;-84
2022/12/21 06:54:24;;;;;;;515.97;54.03;;;6.90;99.90;;;;;;5047977;28;20175;-79
2022/12/21 06:56:50;;;;;;;489.05;51.50;;;6.90;99.90;;;;;;5031748;28;20041;-84
2022/12/21 06:59:16;;;;;;;474.92;52.83;;;6.90;99.90;;;;;;5024732;28;20037;-86
2022/12/21 07:01:42;;;;;;;463.33;51.33;;;6.90;99.90;;;;;;5013993;28;20120;-79
2022/12/21 07:04:07;;;;;;;427.30;50.55;;;6.90;99.90;;;;;;5009256;28;20387;-77
2022/12/21 07:06:33;;;;;;;448.20;51.45;;;7.00;99.90;;;;;;5049895;28;20052;-79
2022/12/21 07:09:00;;;;;;;443.63;51.50;;;7.00;99.90;;;;;;5022839;28;20053;-79
2022/12/21 07:11:29;;;;;;;469.65;53.95;;;7.00;99.90;;;;;;5039469;28;20037;-80
2022/12/21 07:13:55;;;;;;;381.00;46.53;;;7.00;99.90;;;;;;5022161;28;20057;-78
2022/12/21 07:16:21;;;;;;;382.10;48.67;;;7.00;99.90;;;;;;5021351;28;20088;-82
2022/12/21 07:18:47;;;;;;;373.20;47.03;;;7.10;99.90;;;;;;5029541;28;20037;-82
2022/12/21 07:21:15;;;;;;;329.00;44.40;;;7.10;99.90;;;;;;5032812;28;20037;-83
2022/12/21 07:23:41;;;;;;;337.98;45.05;;;7.10;99.90;;;;;;5031922;28;20052;-84
2022/12/21 07:26:08;;;;;;;300.20;44.92;;;7.10;99.90;;;;;;5027721;28;20045;-83
2022/12/21 07:28:34;;;;;;;327.45;44.95;;;7.10;99.90;;;;;;5031386;28;20135;-86
2022/12/21 07:31:04;;;;;;;318.52;43.05;;;7.20;99.90;;;;;;5042481;28;20174;-83
2022/12/21 07:33:30;;;;;;;304.58;42.38;;;7.20;99.90;;;;;;5039592;28;20122;-82
2022/12/21 07:36:04;;;;;;;269.02;41.30;;;7.20;99.90;;;;;;5031231;28;20049;-82
2022/12/21 07:38:32;;;;;;;280.00;40.75;;;7.20;99.90;;;;;;5027945;28;20129;-86
2022/12/21 07:40:59;;;;;;;296.88;42.28;;;7.20;99.90;;;;;;5025602;28;20045;-84
2022/12/21 07:43:25;;;;;;;273.63;40.33;;;7.20;99.90;;;;;;5035519;28;20048;-82
2022/12/21 07:45:51;;;;;;;310.52;44.70;;;7.20;99.90;;;;;;5015488;28;20079;-82
2022/12/21 07:48:17;;;;;;;270.15;41.35;;;7.20;99.90;;;;;;5048910;28;20059;-83
2022/12/21 07:50:46;;;;;;;308.40;44.88;;;7.20;99.90;;;;;;5031568;28;20061;-83
2022/12/21 07:53:12;;;;;;;260.13;39.80;;;7.20;99.90;;;;;;5032841;28;20051;-82
2022/12/21 07:55:38;;;;;;;286.48;42.22;;;7.20;99.90;;;;;;5024892;28;20127;-83
2022/12/21 07:58:04;;;;;;;262.33;41.47;;;7.20;99.90;;;;;;5002874;28;20414;-82
2022/12/21 08:00:30;;;;;;;300.42;43.33;;;7.20;99.90;;;;;;5033873;28;20543;-83
2022/12/21 08:02:55;;;;;;;328.75;46.90;;;7.20;99.90;;;;;;5020220;28;20072;-82
2022/12/21 08:05:24;;;;;;;291.27;44.78;;;7.30;99.90;;;;;;5011569;28;20595;-83
2022/12/21 08:07:50;;;;;;;251.40;43.58;;;7.20;99.90;;;;;;5015154;28;20136;-82
2022/12/21 08:10:16;;;;;;;266.55;43.10;;;7.20;99.90;;;;;;5023101;28;20051;-82
2022/12/21 08:12:42;;;;;;;312.20;43.38;;;7.20;99.90;;;;;;5015123;28;20050;-83
2022/12/21 08:15:08;;;;;;;247.70;41.28;;;7.20;99.90;;;;;;5031874;28;20045;-82
2022/12/21 08:17:34;;;;;;;280.67;43.28;;;7.20;99.90;;;;;;5046375;28;20079;-84
2022/12/21 08:19:59;;;;;;;298.98;42.90;;;7.30;99.90;;;;;;4985964;28;20053;-82
2022/12/21 08:22:25;;;;;;;307.25;45.72;;;7.20;99.90;;;;;;5015753;28;20037;-83
2022/12/21 08:24:51;;;;;;;332.73;48.28;;;7.30;99.90;;;;;;5033278;28;20045;-83
2022/12/21 08:27:17;;;;;;;301.70;45.45;;;7.30;99.90;;;;;;5044680;28;20054;-82
2022/12/21 08:29:43;;;;;;;236.05;42.88;;;7.20;99.90;;;;;;5027302;28;20065;-83
2022/12/21 08:32:09;;;;;;;291.50;43.72;;;7.30;99.90;;;;;;5031643;28;20076;-85
2022/12/21 08:34:35;;;;;;;280.08;43.80;;;7.20;99.90;;;;;;5019040;28;20048;-83
2022/12/21 08:37:01;;;;;;;281.40;44.42;;;7.30;99.90;;;;;;5032783;28;20055;-82
2022/12/21 08:39:27;;;;;;;303.75;46.25;;;7.30;99.90;;;;;;5031480;28;20053;-82
2022/12/21 08:41:53;;;;;;;288.63;46.75;;;7.20;99.90;;;;;;5032068;28;20084;-82
2022/12/21 08:44:19;;;;;;;298.42;47.05;;;7.20;99.90;;;;;;5025058;28;20160;-82
2022/12/21 08:46:45;;;;;;;328.48;47.60;;;7.20;99.90;;;;;;5048179;28;20494;-82
2022/12/21 08:49:11;;;;;;;310.75;47.15;;;7.20;99.90;;;;;;5029887;28;20048;-83
2022/12/21 08:51:40;;;;;;;327.48;50.45;;;7.20;99.90;;;;;;5042637;28;20548;-83
2022/12/21 08:54:07;;;;;;;284.17;45.50;;;7.20;99.90;;;;;;5037974;28;20478;-84
2022/12/21 08:56:33;;;;;;;309.23;49.05;;;7.20;99.90;;;;;;5036964;28;20041;-83
2022/12/21 08:59:05;;;;;;;303.42;48.72;;;7.30;99.90;;;;;;5047555;28;20041;-83
2022/12/21 09:01:31;;;;;;;299.65;47.60;;;7.30;99.90;;;;;;5055562;28;20040;-85
2022/12/21 09:03:57;;;;;;;341.42;49.78;;;7.40;99.90;;;;;;5036261;28;20052;-82
2022/12/21 09:06:23;;;;;;;315.88;50.45;;;7.40;99.90;;;;;;5041432;28;20036;-85
2022/12/21 09:08:49;;;;;;;311.70;51.88;;;7.50;99.90;;;;;;5032177;28;20099;-83
2022/12/21 09:11:17;;;;;;;257.80;47.15;;;7.50;99.90;;;;;;5054991;28;20055;-83
2022/12/21 09:13:43;;;;;;;288.70;50.05;;;7.50;99.90;;;;;;5035616;28;20047;-89
2022/12/21 09:16:22;;;;;;;318.42;52.15;;;7.50;99.90;;;;;;5057458;28;20511;-85
2022/12/21 09:18:48;;;;;;;237.98;48.65;;;7.60;99.90;;;;;;5033830;28;20056;-83
2022/12/21 09:21:15;;;;;;;276.73;50.72;;;7.60;99.90;;;;;;5036005;28;20045;-83
2022/12/21 09:23:42;;;;;;;300.95;51.97;;;7.60;99.90;;;;;;5035665;28;20084;-84
2022/12/21 09:26:09;;;;;;;241.57;49.85;;;7.70;99.90;;;;;;5032556;28;20056;-82
2022/12/21 09:28:36;;;;;;;205.10;48.83;;;7.80;99.90;;;;;;5045163;28;20069;-83
2022/12/21 09:31:21;;;;;;;256.38;52.88;;;7.80;99.90;;;;;;5052285;28;20067;-82
2022/12/21 09:33:47;;;;;;;289.75;53.13;;;7.80;99.90;;;;;;5036739;28;20067;-83
2022/12/21 09:36:14;;;;;;;215.00;48.97;;;7.80;99.90;;;;;;5024741;28;20041;-83
2022/12/21 09:38:40;;;;;;;219.25;47.55;;;8.00;99.90;;;;;;5051698;28;20792;-83
2022/12/21 09:41:06;;;;;;;196.68;46.38;;;7.90;99.90;;;;;;5034823;28;20080;-85
2022/12/21 09:43:59;;;;;;;182.25;43.33;;;7.90;99.90;;;;;;5048569;28;20078;-82
2022/12/21 09:46:26;;;;;;;208.52;44.55;;;7.90;99.90;;;;;;5048464;28;20055;-81
2022/12/21 09:48:55;;;;;;;191.85;45.05;;;7.90;99.90;;;;;;5068796;28;20512;-85
2022/12/21 09:51:29;;;;;;;216.10;46.60;;;7.90;99.90;;;;;;5036156;28;20499;-83
2022/12/21 09:54:15;;;;;;;207.07;45.67;;;8.00;99.90;;;;;;5036660;28;20088;-84
2022/12/21 09:56:44;;;;;;;233.68;48.15;;;8.00;99.90;;;;;;5038933;28;20049;-85
2022/12/21 09:59:13;;;;;;;203.65;45.53;;;7.90;99.90;;;;;;5022496;28;20612;-84
2022/12/21 10:02:07;;;;;;;212.90;46.58;;;7.90;99.90;;;;;;5021851;28;20108;-84
2022/12/21 10:04:46;;;;;;;208.98;44.92;;;7.90;99.90;;;;;;5025475;28;20045;-85
2022/12/21 10:07:12;;;;;;;202.32;44.92;;;7.90;99.90;;;;;;5026881;28;20045;-83
2022/12/21 10:10:06;;;;;;;205.45;45.15;;;7.90;99.90;;;;;;5027090;28;20057;-84
2022/12/21 10:13:01;;;;;;;192.65;44.67;;;7.80;99.90;;;;;;5020757;28;20049;-84
2022/12/21 10:15:50;;;;;;;196.73;43.60;;;7.80;99.90;;;;;;5019849;28;20080;-84
2022/12/21 10:18:20;;;;;;;193.27;43.67;;;7.80;99.90;;;;;;5028498;28;20056;-85
2022/12/21 10:21:04;;;;;;;145.02;38.95;;;7.80;99.90;;;;;;5039944;28;20100;-85
2022/12/21 10:23:34;;;;;;;145.38;36.65;;;7.80;99.90;;;;;;5032526;28;20483;-85
2022/12/21 10:26:06;;;;;;;168.30;39.63;;;7.70;99.90;;;;;;5032738;28;20054;-85
2022/12/21 10:28:35;;;;;;;142.55;37.47;;;7.50;99.90;;;;;;5033502;28;20099;-83
2022/12/21 10:31:05;;;;;;;166.82;38.63;;;7.60;99.90;;;;;;5031939;28;20124;-83
2022/12/21 10:33:42;;;;;;;144.90;38.80;;;7.60;99.90;;;;;;5026748;28;20053;-83
2022/12/21 10:36:15;;;;;;;151.93;38.60;;;7.60;99.90;;;;;;5025648;28;20557;-83
2022/12/21 10:38:41;;;;;;;107.07;32.17;;;7.70;99.90;;;;;;5032385;28;20049;-83
2022/12/21 10:41:21;;;;;;;124.70;34.83;;;7.70;99.90;;;;;;5012542;28;20479;-83
2022/12/21 10:43:49;;;;;;;120.25;34.05;;;7.70;99.90;;;;;;5042519;28;20076;-88
2022/12/21 10:46:20;;;;;;;116.70;33.53;;;7.70;99.90;;;;;;5010834;28;20050;-86
2022/12/21 10:48:48;;;;;;;118.18;33.03;;;7.80;99.90;;;;;;5015617;28;20120;-84
2022/12/21 10:51:21;;;;;;;101.60;32.03;;;7.80;99.90;;;;;;5032005;28;20107;-84
2022/12/21 10:54:24;;;;;;;111.05;31.13;;;7.80;99.90;;;;;;5015279;28;20542;-84
2022/12/21 10:56:51;;;;;;;119.88;33.20;;;7.80;99.90;;;;;;5031456;28;20061;-83
2022/12/21 10:59:38;;;;;;;121.28;32.63;;;7.80;99.90;;;;;;5021927;28;20042;-83
2022/12/21 11:02:06;;;;;;;106.35;30.38;;;7.70;99.90;;;;;;5039420;28;20124;-83
2022/12/21 11:04:32;;;;;;;98.90;29.05;;;7.60;99.90;;;;;;5034977;28;20057;-81
2022/12/21 11:06:59;;;;;;;107.15;28.60;;;7.50;99.90;;;;;;4997505;28;20131;-80
2022/12/21 11:09:32;;;;;;;102.10;31.27;;;7.50;99.90;;;;;;5012774;28;20503;-82
2022/12/21 11:12:24;;;;;;;93.90;27.90;;;7.50;99.90;;;;;;5007491;28;20072;-80
2022/12/21 11:14:51;;;;;;;102.65;29.92;;;7.50;99.90;;;;;;5012209;28;20072;-81
2022/12/21 11:17:26;;;;;;;96.75;29.80;;;7.50;99.90;;;;;;5025511;28;20395;-80
2022/12/21 11:20:04;;;;;;;94.80;27.65;;;7.50;99.90;;;;;;5030881;28;20060;-81
2022/12/21 11:22:31;;;;;;;86.90;27.92;;;7.50;99.90;;;;;;5025667;28;20049;-81
2022/12/21 11:24:59;;;;;;;102.07;29.20;;;7.50;99.90;;;;;;4996912;28;20053;-81
2022/12/21 11:27:34;;;;;;;92.82;27.70;;;7.60;99.90;;;;;;5031080;28;20064;-81
2022/12/21 11:30:05;;;;;;;93.22;28.42;;;7.60;99.90;;;;;;5014928;28;20049;-81
2022/12/21 11:32:32;;;;;;;91.70;28.73;;;7.60;99.90;;;;;;5011086;28;20483;-80
2022/12/21 11:35:04;;;;;;;87.60;27.27;;;7.60;99.90;;;;;;5001670;28;20084;-81
2022/12/21 11:37:36;;;;;;;94.57;29.33;;;7.70;99.90;;;;;;5023223;28;20041;-80
2022/12/21 11:40:11;;;;;;;89.65;26.90;;;7.70;99.90;;;;;;5026155;28;20053;-81
2022/12/21 11:43:03;;;;;;;97.65;29.15;;;7.70;99.90;;;;;;5027984;28;20045;-81
2022/12/21 11:46:00;;;;;;;97.53;29.38;;;7.70;99.90;;;;;;5045544;28;20115;-83
2022/12/21 11:48:45;;;;;;;96.10;28.83;;;7.70;99.90;;;;;;5040072;28;20123;-84
2022/12/21 11:51:25;;;;;;;77.38;25.88;;;7.70;99.90;;;;;;5039880;28;20053;-83
2022/12/21 11:54:37;;;;;;;87.10;27.10;;;7.60;99.90;;;;;;5043669;28;20041;-83
2022/12/21 11:57:17;;;;;;;81.43;26.63;;;7.70;99.90;;;;;;4972184;28;20081;-82
2022/12/21 12:00:05;;;;;;;80.15;25.08;;;7.70;99.90;;;;;;5041806;28;20049;-84
2022/12/21 12:03:15;;;;;;;88.43;26.45;;;7.70;99.90;;;;;;5027764;28;20044;-83
2022/12/21 12:05:59;;;;;;;74.05;24.85;;;7.70;99.90;;;;;;5036840;28;20045;-80
2022/12/21 12:08:37;;;;;;;73.93;24.02;;;7.70;99.90;;;;;;5044608;28;20045;-87
2022/12/21 12:11:21;;;;;;;78.80;24.25;;;7.70;99.90;;;;;;5038592;28;20443;-83
2022/12/21 12:14:28;;;;;;;70.32;24.80;;;7.80;99.90;;;;;;5048449;28;20040;-81
2022/12/21 12:17:26;;;;;;;79.60;24.48;;;7.80;99.90;;;;;;5023830;28;20061;-81
2022/12/21 12:19:59;;;;;;;71.47;24.13;;;7.70;99.90;;;;;;5045158;28;20438;-81
2022/12/21 12:23:09;;;;;;;77.88;24.02;;;7.70;99.90;;;;;;5030184;28;20048;-82
2022/12/21 12:25:59;;;;;;;77.18;25.00;;;7.70;99.90;;;;;;4971204;28;20073;-82
2022/12/21 12:28:47;;;;;;;85.05;25.70;;;7.70;99.90;;;;;;4989213;28;20050;-82
2022/12/21 12:31:18;;;;;;;78.32;24.90;;;7.70;99.90;;;;;;5023707;28;20076;-84
2022/12/21 12:34:05;;;;;;;67.28;23.02;;;7.60;99.90;;;;;;5047532;28;20063;-84
2022/12/21 12:36:43;;;;;;;68.93;23.42;;;7.70;99.90;;;;;;5042475;28;20045;-81
2022/12/21 12:39:38;;;;;;;71.75;23.45;;;7.70;99.90;;;;;;5047277;28;20040;-81
2022/12/21 12:42:29;;;;;;;69.93;21.55;;;7.70;99.90;;;;;;5042996;28;20044;-82
2022/12/21 12:45:01;;;;;;;60.90;20.50;;;7.70;99.90;;;;;;5027344;28;20077;-83
2022/12/21 12:47:29;;;;;;;65.65;22.33;;;7.60;99.90;;;;;;5030659;28;20057;-82
2022/12/21 12:49:55;;;;;;;65.18;22.20;;;7.70;99.90;;;;;;5023475;28;20465;-83
2022/12/21 12:52:28;;;;;;;62.10;20.58;;;7.70;99.90;;;;;;5044768;28;20056;-82
2022/12/21 12:55:08;;;;;;;55.45;19.63;;;7.60;99.90;;;;;;5047917;28;20041;-82
2022/12/21 12:57:40;;;;;;;53.30;20.05;;;7.70;99.90;;;;;;5047179;28;20127;-83
2022/12/21 13:00:10;;;;;;;66.63;20.80;;;7.70;99.90;;;;;;5025655;28;20053;-84
2022/12/21 13:02:59;;;;;;;62.30;20.98;;;7.70;99.90;;;;;;5028469;28;20048;-82
2022/12/21 13:05:40;;;;;;;59.58;21.60;;;7.80;99.90;;;;;;5028109;28;20048;-82
2022/12/21 13:08:16;;;;;;;53.03;21.00;;;7.80;99.90;;;;;;5023515;28;20486;-82